| time (UTC) | temp F | wind direction | speed knots | gust knots | rain 1hr in | rain 24hr in | rain mn in | humidity % | barometer mb |
| 20260508131613 | 55 | 284 | 8.7 | 12.2 | 0.00 | 0.58 | 0.00 | 65 | 1002.9 |
| 20260508130053 | 55 | 274 | 4.3 | 8.7 | 0.00 | 0.58 | 0.00 | 68 | 1002.8 |
| 20260508124554 | 54 | 13 | 0.0 | 4.3 | 0.00 | 0.58 | 0.00 | 72 | 1002.7 |
| 20260508123105 | 52 | 0 | 1.7 | 3.5 | 0.00 | 0.58 | 0.00 | 75 | 1002.8 |
| 20260508121602 | 51 | 281 | 2.6 | 5.2 | 0.00 | 0.58 | 0.00 | 78 | 1003.0 |
| 20260508120059 | 49 | 0 | 0.0 | 4.3 | 0.00 | 0.58 | 0.00 | 80 | 1003.1 |
| 20260508114558 | 48 | 271 | 2.6 | 6.1 | 0.00 | 0.58 | 0.00 | 81 | 1003.0 |
| 20260508113102 | 48 | 254 | 4.3 | 7.8 | 0.00 | 0.58 | 0.00 | 83 | 1003.1 |
| 20260508111602 | 47 | 291 | 2.6 | 6.1 | 0.00 | 0.58 | 0.00 | 86 | 1003.1 |
| 20260508104550 | 45 | 300 | 3.5 | 6.1 | 0.00 | 0.58 | 0.00 | 88 | 1003.1 |
| 20260508103052 | 45 | 290 | 1.7 | 5.2 | 0.00 | 0.58 | 0.00 | 89 | 1002.9 |
| 20260508101552 | 44 | 273 | 1.7 | 5.2 | 0.00 | 0.58 | 0.00 | 89 | 1002.7 |
| 20260508100054 | 43 | 327 | 0.9 | 2.6 | 0.00 | 0.58 | 0.00 | 88 | 1002.6 |
| 20260508094606 | 42 | 0 | 0.0 | 2.6 | 0.00 | 0.59 | 0.00 | 88 | 1002.5 |
| 20260508093051 | 42 | 0 | 0.0 | 2.6 | 0.00 | 0.59 | 0.00 | 88 | 1002.3 |
| 20260508091556 | 42 | 0 | 0.0 | 1.7 | 0.00 | 0.59 | 0.00 | 88 | 1002.3 |
| 20260508090054 | 42 | 327 | 0.9 | 3.5 | 0.00 | 0.59 | 0.00 | 88 | 1002.1 |
| 20260508084551 | 43 | 0 | 0.9 | 3.5 | 0.00 | 0.61 | 0.00 | 88 | 1002.3 |
| 20260508083056 | 43 | 0 | 0.0 | 0.9 | 0.00 | 0.61 | 0.00 | 88 | 1002.4 |
| 20260508081605 | 43 | 312 | 0.0 | 1.7 | 0.00 | 0.61 | 0.00 | 89 | 1002.4 |
| 20260508080052 | 43 | 312 | 0.9 | 2.6 | 0.00 | 0.61 | 0.00 | 88 | 1002.0 |
| 20260508074553 | 43 | 0 | 0.0 | 2.6 | 0.00 | 0.77 | 0.00 | 88 | 1002.0 |
| 20260508073056 | 43 | 0 | 0.0 | 3.5 | 0.00 | 0.77 | 0.00 | 88 | 1002.3 |
| 20260508071556 | 42 | 0 | 0.0 | 2.6 | 0.00 | 0.77 | 0.00 | 88 | 1002.4 |
| 20260508064552 | 42 | 0 | 0.0 | 2.6 | 0.00 | 0.90 | 0.00 | 88 | 1002.5 |
| 20260508063055 | 43 | 307 | 0.9 | 3.5 | 0.00 | 0.90 | 0.00 | 88 | 1002.4 |
| 20260508061556 | 43 | 305 | 0.9 | 2.6 | 0.00 | 0.90 | 0.00 | 88 | 1002.1 |
| 20260508060052 | 43 | 309 | 0.9 | 2.6 | 0.00 | 0.90 | 0.00 | 87 | 1002.3 |
| 20260508054557 | 43 | 325 | 0.9 | 5.2 | 0.00 | 0.90 | 0.00 | 88 | 1002.2 |
| 20260508053057 | 43 | 290 | 0.9 | 4.3 | 0.00 | 0.90 | 0.00 | 88 | 1002.5 |
| 20260508051550 | 44 | 0 | 0.0 | 0.0 | 0.00 | 0.90 | 0.00 | 88 | 1002.8 |
| 20260508050052 | 44 | 0 | 0.0 | 0.0 | 0.00 | 0.90 | 0.00 | 87 | 1002.5 |
| 20260508044605 | 45 | 0 | 0.0 | 0.0 | 0.00 | 0.90 | 0.00 | 87 | 1002.6 |
| 20260508043108 | 45 | 0 | 0.0 | 0.0 | 0.00 | 0.90 | 0.00 | 86 | 1002.9 |
| 20260508041557 | 46 | 0 | 0.0 | 0.0 | 0.00 | 0.90 | 0.00 | 86 | 1003.1 |
| 20260508040059 | 46 | 0 | 0.0 | 3.5 | 0.00 | 0.90 | 0.00 | 86 | 1003.1 |
| 20260508034557 | 47 | 0 | 0.0 | 0.0 | 0.00 | 0.90 | 0.00 | 85 | 1003.0 |
| 20260508033056 | 48 | 0 | 0.0 | 0.9 | 0.00 | 0.90 | 0.00 | 84 | 1002.8 |
| 20260508031551 | 49 | 0 | 0.0 | 0.0 | 0.00 | 0.90 | 0.00 | 83 | 1002.7 |
| 20260508030057 | 49 | 0 | 0.9 | 2.6 | 0.00 | 0.90 | 0.00 | 83 | 1002.9 |
| 20260508024550 | 50 | 0 | 0.0 | 0.9 | 0.00 | 0.90 | 0.90 | 83 | 1003.0 |
| 20260508023054 | 50 | 0 | 1.7 | 3.5 | 0.00 | 0.90 | 0.90 | 83 | 1003.1 |
| 20260508021551 | 50 | 0 | 1.7 | 6.1 | 0.00 | 0.90 | 0.90 | 83 | 1003.2 |
| 20260508020050 | 50 | 298 | 2.6 | 6.1 | 0.00 | 0.90 | 0.90 | 83 | 1003.5 |
| 20260508014551 | 50 | 273 | 3.5 | 7.8 | 0.00 | 0.90 | 0.90 | 84 | 1003.5 |
| 20260508013050 | 50 | 0 | 0.0 | 0.0 | 0.00 | 0.90 | 0.90 | 84 | 1003.6 |
| 20260508011549 | 51 | 0 | 0.0 | 0.0 | 0.00 | 0.90 | 0.90 | 83 | 1003.4 |
| 20260508010050 | 51 | 0 | 0.0 | 0.0 | 0.00 | 0.90 | 0.90 | 82 | 1003.4 |
| 20260508004553 | 52 | 0 | 0.0 | 2.6 | 0.00 | 0.90 | 0.90 | 80 | 1003.0 |
| 20260508003055 | 53 | 288 | 0.9 | 2.6 | 0.00 | 0.90 | 0.90 | 79 | 1002.5 |
| 20260508001550 | 53 | 0 | 1.7 | 3.5 | 0.00 | 0.90 | 0.90 | 78 | 1002.7 |
| 20260508000050 | 54 | 290 | 0.9 | 4.3 | 0.00 | 0.90 | 0.90 | 77 | 1002.5 |
| 20260507234559 | 54 | 302 | 1.7 | 3.5 | 0.00 | 0.90 | 0.90 | 77 | 1001.9 |
| 20260507233050 | 55 | 274 | 1.7 | 5.2 | 0.00 | 0.90 | 0.90 | 76 | 1002.3 |
| 20260507231553 | 57 | 273 | 1.7 | 5.2 | 0.00 | 0.90 | 0.90 | 74 | 1002.1 |
| 20260507230057 | 57 | 261 | 2.6 | 6.1 | 0.00 | 0.90 | 0.90 | 74 | 1001.8 |
| 20260507224551 | 58 | 294 | 2.6 | 7.0 | 0.00 | 0.90 | 0.90 | 74 | 1001.7 |
| 20260507223059 | 57 | 255 | 2.6 | 7.8 | 0.00 | 0.90 | 0.90 | 76 | 1001.9 |
| 20260507221555 | 57 | 269 | 2.6 | 6.1 | 0.00 | 0.90 | 0.90 | 77 | 1001.8 |
| 20260507220055 | 57 | 314 | 3.5 | 8.7 | 0.00 | 0.90 | 0.90 | 75 | 1001.9 |
| 20260507214559 | 58 | 244 | 5.2 | 13.0 | 0.00 | 0.90 | 0.90 | 74 | 1002.1 |
| 20260507213052 | 58 | 276 | 7.0 | 11.3 | 0.00 | 0.90 | 0.90 | 76 | 1002.0 |
| 20260507211552 | 60 | 280 | 6.1 | 12.2 | 0.00 | 0.90 | 0.90 | 75 | 1002.1 |
| 20260507210051 | 59 | 235 | 4.3 | 9.6 | 0.00 | 0.90 | 0.90 | 81 | 1001.7 |
| 20260507204551 | 58 | 272 | 5.2 | 11.3 | 0.00 | 0.90 | 0.90 | 83 | 1001.6 |
| 20260507203057 | 59 | 275 | 5.2 | 11.3 | 0.00 | 0.90 | 0.90 | 86 | 1001.6 |
| 20260507201550 | 58 | 285 | 7.0 | 13.0 | 0.00 | 0.90 | 0.90 | 87 | 1001.6 |
| 20260507200053 | 58 | 261 | 6.1 | 13.0 | 0.00 | 0.90 | 0.90 | 88 | 1001.7 |
| 20260507194550 | 57 | 228 | 6.1 | 12.2 | 0.00 | 0.90 | 0.90 | 90 | 1001.5 |
| 20260507193058 | 57 | 231 | 7.0 | 10.4 | 0.00 | 0.90 | 0.90 | 92 | 1001.5 |
| 20260507191549 | 57 | 200 | 1.7 | 7.8 | 0.00 | 0.90 | 0.90 | 92 | 1001.6 |
| 20260507190054 | 56 | 228 | 2.6 | 7.8 | 0.00 | 0.90 | 0.90 | 92 | 1001.8 |
| 20260507184555 | 56 | 166 | 1.7 | 6.1 | 0.00 | 0.90 | 0.90 | 92 | 1001.6 |
| 20260507183103 | 56 | 146 | 1.7 | 4.3 | 0.00 | 0.90 | 0.90 | 92 | 1001.5 |
| 20260507181551 | 55 | 0 | 0.9 | 5.2 | 0.00 | 0.90 | 0.90 | 92 | 1001.8 |
| 20260507180052 | 54 | 200 | 1.7 | 6.1 | 0.00 | 0.90 | 0.90 | 92 | 1002.2 |
| 20260507174604 | 53 | 187 | 0.9 | 8.7 | 0.03 | 0.90 | 0.90 | 92 | 1002.3 |
| 20260507173057 | 54 | 221 | 3.5 | 7.0 | 0.03 | 0.90 | 0.90 | 92 | 1002.3 |
| 20260507171608 | 54 | 136 | 0.9 | 6.1 | 0.08 | 0.90 | 0.90 | 92 | 1001.5 |
| 20260507170058 | 53 | 148 | 1.7 | 4.3 | 0.08 | 0.89 | 0.89 | 92 | 1002.0 |
| 20260507164603 | 53 | 171 | 0.9 | 3.5 | 0.06 | 0.87 | 0.87 | 91 | 1002.2 |
| 20260507163055 | 53 | 113 | 1.7 | 7.0 | 0.07 | 0.86 | 0.86 | 91 | 1002.0 |
| 20260507161600 | 53 | 145 | 2.6 | 6.1 | 0.07 | 0.81 | 0.81 | 91 | 1003.0 |
| 20260507160101 | 54 | 109 | 1.7 | 5.2 | 0.09 | 0.81 | 0.81 | 91 | 1002.6 |
| 20260507154554 | 54 | 159 | 0.9 | 4.3 | 0.13 | 0.81 | 0.81 | 91 | 1002.8 |
| 20260507153058 | 54 | 127 | 0.9 | 3.5 | 0.14 | 0.78 | 0.78 | 91 | 1003.0 |
| 20260507151557 | 53 | 188 | 0.9 | 2.6 | 0.28 | 0.74 | 0.74 | 91 | 1003.6 |
| 20260507150057 | 53 | 213 | 0.9 | 2.6 | 0.29 | 0.71 | 0.71 | 91 | 1003.7 |
| 20260507144556 | 53 | 146 | 0.9 | 5.2 | 0.33 | 0.67 | 0.67 | 91 | 1003.9 |
| 20260507143057 | 53 | 0 | 0.0 | 9.6 | 0.29 | 0.63 | 0.63 | 91 | 1004.2 |
| 20260507141557 | 53 | 202 | 0.9 | 2.6 | 0.14 | 0.46 | 0.46 | 91 | 1004.6 |
| 20260507140052 | 53 | 204 | 3.5 | 9.6 | 0.09 | 0.41 | 0.41 | 91 | 1003.8 |
| 20260507134556 | 53 | 209 | 2.6 | 10.4 | 0.02 | 0.34 | 0.34 | 91 | 1004.7 |
| 20260507133058 | 53 | 210 | 2.6 | 10.4 | 0.01 | 0.33 | 0.33 | 91 | 1004.2 |